Terminal Aerodrome Forecast
Issued by NWS

Home | Current Version | Previous Version | Text Only | Print | Product List | Glossary On
Versions: 1 2 3 4 5 6 7 8 9 10 11 12 13 14 15 16 17 18
000
FTUS41 KPBZ 270500
TAFDUJ
TAF
KDUJ 270520Z 2706/2806 22006KT P6SM BKN200
     FM271000 22007KT P6SM BKN025
     FM271800 20008KT P6SM BKN150
     FM280400 24005KT 4SM -RA OVC025=

USA.gov is the U.S. government's official web portal to all federal, state and local government web resources and services.